createdAt,value
2023-02-03T00:01:30.271Z,102329.78
2023-02-03T00:03:56.613Z,102332.56
2023-02-03T00:06:23.111Z,102334.22
2023-02-03T00:08:52.372Z,102343.53
2023-02-03T00:11:18.685Z,102351.22
2023-02-03T00:13:45.079Z,102345.66
2023-02-03T00:16:11.482Z,102349.94
2023-02-03T00:18:37.804Z,102343.72
2023-02-03T00:21:04.195Z,102351.41
2023-02-03T00:23:30.471Z,102363.34
2023-02-03T00:25:56.743Z,102353.06
2023-02-03T00:28:23.055Z,102365.50
2023-02-03T00:30:49.352Z,102370.56
2023-02-03T00:33:15.685Z,102378.75
2023-02-03T00:35:41.972Z,102375.16
2023-02-03T00:38:08.277Z,102370.78
2023-02-03T00:40:34.550Z,102355.88
2023-02-03T00:43:00.842Z,102367.34
2023-02-03T00:45:27.144Z,102377.34
2023-02-03T00:47:53.441Z,102373.44
2023-02-03T00:50:19.765Z,102375.06
2023-02-03T00:52:46.078Z,102364.63
2023-02-03T00:55:12.381Z,102358.25
2023-02-03T00:57:38.707Z,102376.59
2023-02-03T01:00:06.221Z,102366.28
2023-02-03T01:02:32.692Z,102373.97
2023-02-03T01:04:59.032Z,102367.09
2023-02-03T01:07:25.325Z,102352.56
2023-02-03T01:09:51.657Z,102340.31
2023-02-03T01:12:18.001Z,102343.56
2023-02-03T01:14:44.279Z,102341.59
2023-02-03T01:17:10.601Z,102342.91
2023-02-03T01:19:36.915Z,102361.72
2023-02-03T01:22:03.273Z,102346.66
2023-02-03T01:24:30.587Z,102342.56
2023-02-03T01:26:56.929Z,102333.69
2023-02-03T01:29:23.336Z,102331.09
2023-02-03T01:31:49.720Z,102318.22
2023-02-03T01:34:16.370Z,102308.09
2023-02-03T01:36:43.016Z,102305.00
2023-02-03T01:39:10.418Z,102310.59
2023-02-03T01:41:38.713Z,102309.94
2023-02-03T01:44:42.781Z,102310.59
2023-02-03T01:47:18.514Z,102311.41
2023-02-03T01:49:52.274Z,102300.94
2023-02-03T01:52:18.978Z,102290.78
2023-02-03T01:54:48.243Z,102283.81
2023-02-03T01:57:21.384Z,102265.47
2023-02-03T01:59:49.717Z,102268.44
2023-02-03T02:02:16.101Z,102277.28
2023-02-03T02:05:01.238Z,102289.34
2023-02-03T02:07:28.683Z,102302.56
2023-02-03T02:09:56.345Z,102312.72
2023-02-03T02:12:22.739Z,102309.94
2023-02-03T02:14:49.127Z,102300.59
2023-02-03T02:17:35.616Z,102303.22
2023-02-03T02:20:23.088Z,102296.03
2023-02-03T02:23:07.168Z,102282.66
2023-02-03T02:25:52.026Z,102283.44
2023-02-03T02:28:32.300Z,102282.78
2023-02-03T02:31:36.664Z,102289.81
2023-02-03T02:34:14.551Z,102306.59
2023-02-03T02:36:57.062Z,102295.44
2023-02-03T02:39:37.736Z,102304.81
2023-02-03T02:42:41.305Z,102298.47
2023-02-03T02:45:17.383Z,102283.09
2023-02-03T02:47:44.435Z,102264.16
2023-02-03T02:50:18.156Z,102268.06
2023-02-03T02:52:46.847Z,102260.88
2023-02-03T02:55:18.785Z,102248.66
2023-02-03T02:57:47.390Z,102262.56
2023-02-03T03:00:14.607Z,102265.66
2023-02-03T03:02:40.967Z,102279.19
2023-02-03T03:05:10.598Z,102287.22
2023-02-03T03:07:45.382Z,102276.59
2023-02-03T03:10:16.008Z,102268.25
2023-02-03T03:12:50.116Z,102274.66
2023-02-03T03:15:30.905Z,102261.09
2023-02-03T03:18:17.783Z,102250.53
2023-02-03T03:20:47.424Z,102254.44
2023-02-03T03:23:37.674Z,102263.75
2023-02-03T03:26:08.497Z,102267.50
2023-02-03T03:28:49.355Z,102272.72
2023-02-03T03:31:18.927Z,102274.19
2023-02-03T03:33:47.432Z,102272.84
2023-02-03T03:36:26.063Z,102278.28
2023-02-03T03:39:24.222Z,102270.28
2023-02-03T03:42:12.871Z,102265.91
2023-02-03T03:44:52.736Z,102253.28
2023-02-03T03:47:30.327Z,102272.44
2023-02-03T03:49:59.821Z,102263.66
2023-02-03T03:52:31.272Z,102272.81
2023-02-03T03:55:00.996Z,102271.00
2023-02-03T03:57:39.543Z,102261.69
2023-02-03T04:00:09.093Z,102252.06
2023-02-03T04:02:39.095Z,102256.47
2023-02-03T04:05:06.708Z,102256.81
2023-02-03T04:07:44.680Z,102259.75
2023-02-03T04:10:33.674Z,102279.88
2023-02-03T04:13:00.674Z,102275.09
2023-02-03T04:15:27.567Z,102282.13
2023-02-03T04:17:54.108Z,102282.50
2023-02-03T04:20:21.123Z,102274.47
2023-02-03T04:22:47.465Z,102272.19
2023-02-03T04:25:14.129Z,102275.13
2023-02-03T04:27:40.495Z,102277.09
2023-02-03T04:30:07.796Z,102267.31
2023-02-03T04:32:34.126Z,102257.03
2023-02-03T04:35:00.467Z,102258.34
2023-02-03T04:37:27.159Z,102262.94
2023-02-03T04:39:54.523Z,102247.25
2023-02-03T04:42:21.853Z,102251.47
2023-02-03T04:44:48.663Z,102248.84
2023-02-03T04:47:15.801Z,102257.69
2023-02-03T04:49:42.151Z,102250.66
2023-02-03T04:52:08.605Z,102248.41
2023-02-03T04:54:34.908Z,102239.72
2023-02-03T04:57:01.521Z,102252.81
2023-02-03T04:59:28.165Z,102234.00
2023-02-03T05:01:54.481Z,102234.66
2023-02-03T05:04:20.856Z,102244.16
2023-02-03T05:06:47.184Z,102251.47
2023-02-03T05:09:14.438Z,102247.13
2023-02-03T05:11:40.848Z,102230.78
2023-02-03T05:14:07.398Z,102243.19
2023-02-03T05:16:33.724Z,102237.31
2023-02-03T05:19:00.102Z,102236.16
2023-02-03T05:21:26.422Z,102246.13
2023-02-03T05:23:52.790Z,102234.53
2023-02-03T05:26:19.082Z,102228.31
2023-02-03T05:28:45.457Z,102232.91
2023-02-03T05:31:11.992Z,102228.81
2023-02-03T05:33:38.329Z,102230.44
2023-02-03T05:36:04.872Z,102225.88
2023-02-03T05:38:31.229Z,102243.69
2023-02-03T05:40:57.708Z,102235.69
2023-02-03T05:43:24.074Z,102227.66
2023-02-03T05:45:50.449Z,102227.66
2023-02-03T05:48:16.948Z,102236.69
2023-02-03T05:50:43.297Z,102245.19
2023-02-03T05:53:09.718Z,102236.16
2023-02-03T05:55:36.499Z,102241.91
2023-02-03T05:58:02.915Z,102226.03
2023-02-03T06:00:30.014Z,102225.72
2023-02-03T06:02:58.868Z,102247.94
2023-02-03T06:05:26.199Z,102242.72
2023-02-03T06:07:52.558Z,102233.06
2023-02-03T06:10:19.099Z,102222.94
2023-02-03T06:12:45.759Z,102236.16
2023-02-03T06:15:12.465Z,102231.75
2023-02-03T06:17:38.925Z,102231.91
2023-02-03T06:20:06.940Z,102241.69
2023-02-03T06:22:33.744Z,102237.47
2023-02-03T06:25:00.088Z,102257.09
2023-02-03T06:27:27.203Z,102239.75
2023-02-03T06:29:53.515Z,102254.31
2023-02-03T06:32:19.835Z,102248.09
2023-02-03T06:34:46.133Z,102257.59
2023-02-03T06:37:12.466Z,102258.72
2023-02-03T06:39:38.780Z,102262.16
2023-02-03T06:42:06.306Z,102274.59
2023-02-03T06:44:32.659Z,102274.09
2023-02-03T06:46:59.040Z,102266.09
2023-02-03T06:49:25.505Z,102270.19
2023-02-03T06:51:51.827Z,102271.31
2023-02-03T06:54:18.204Z,102272.78
2023-02-03T06:56:44.772Z,102265.25
2023-02-03T06:59:11.072Z,102261.97
2023-02-03T07:01:37.605Z,102256.75
2023-02-03T07:04:04.617Z,102261.16
2023-02-03T07:06:31.733Z,102263.13
2023-02-03T07:09:00.698Z,102270.47
2023-02-03T07:11:28.376Z,102263.28
2023-02-03T07:13:54.736Z,102269.50
2023-02-03T07:16:21.416Z,102264.56
2023-02-03T07:18:48.517Z,102266.41
2023-02-03T07:21:16.423Z,102262.63
2023-02-03T07:23:43.001Z,102278.66
2023-02-03T07:26:10.491Z,102287.47
2023-02-03T07:28:37.230Z,102270.31
2023-02-03T07:31:04.058Z,102276.69
2023-02-03T07:33:31.323Z,102288.94
2023-02-03T07:35:59.561Z,102289.75
2023-02-03T07:38:28.009Z,102307.91
2023-02-03T07:40:54.582Z,102302.16
2023-02-03T07:43:21.047Z,102313.78
2023-02-03T07:45:47.379Z,102318.50
2023-02-03T07:48:13.835Z,102317.69
2023-02-03T07:50:40.445Z,102324.03
2023-02-03T07:53:07.679Z,102314.41
2023-02-03T07:55:33.995Z,102323.75
2023-02-03T07:58:03.129Z,102320.78
2023-02-03T08:00:29.933Z,102311.97
2023-02-03T08:02:56.420Z,102319.81
2023-02-03T08:05:22.715Z,102323.44
2023-02-03T08:07:49.048Z,102333.88
2023-02-03T08:10:15.692Z,102336.69
2023-02-03T08:12:44.003Z,102341.94
2023-02-03T08:15:11.442Z,102342.75
2023-02-03T08:17:37.873Z,102334.41
2023-02-03T08:20:04.893Z,102338.34
2023-02-03T08:22:31.190Z,102337.69
2023-02-03T08:24:57.475Z,102326.28
2023-02-03T08:27:23.933Z,102328.75
2023-02-03T08:29:50.468Z,102330.84
2023-02-03T08:32:19.888Z,102339.34
2023-02-03T08:34:46.303Z,102332.16
2023-02-03T08:37:15.332Z,102332.16
2023-02-03T08:39:42.487Z,102322.00
2023-02-03T08:42:09.380Z,102327.75
2023-02-03T08:44:35.935Z,102337.09
2023-02-03T08:47:02.515Z,102342.66
2023-02-03T08:49:30.228Z,102348.22
2023-02-03T08:51:58.003Z,102352.47
2023-02-03T08:54:25.560Z,102345.91
2023-02-03T08:56:52.022Z,102342.81
2023-02-03T08:59:19.097Z,102365.91
2023-02-03T09:01:45.800Z,102354.44
2023-02-03T09:04:12.936Z,102355.09
2023-02-03T09:06:39.599Z,102350.50
2023-02-03T09:09:06.008Z,102374.06
2023-02-03T09:11:32.480Z,102363.09
2023-02-03T09:13:58.821Z,102369.00
2023-02-03T09:16:25.485Z,102355.44
2023-02-03T09:18:51.989Z,102359.53
2023-02-03T09:21:33.030Z,102366.72
2023-02-03T09:24:04.153Z,102363.63
2023-02-03T09:26:30.691Z,102358.09
2023-02-03T09:28:57.083Z,102357.75
2023-02-03T09:31:23.520Z,102350.22
2023-02-03T09:33:49.851Z,102358.75
2023-02-03T09:36:16.260Z,102374.13
2023-02-03T09:38:42.632Z,102374.78
2023-02-03T09:41:15.028Z,102373.16
2023-02-03T09:44:07.915Z,102377.06
2023-02-03T09:46:41.587Z,102385.59
2023-02-03T09:49:21.986Z,102360.06
2023-02-03T09:52:15.394Z,102373.50
2023-02-03T09:54:46.083Z,102383.31
2023-02-03T09:57:26.200Z,102384.78
2023-02-03T09:59:56.030Z,102385.94
2023-02-03T10:02:29.939Z,102391.00
2023-02-03T10:05:18.175Z,102394.28
2023-02-03T10:08:06.810Z,102380.72
2023-02-03T10:10:41.281Z,102380.06
2023-02-03T10:13:26.382Z,102372.66
2023-02-03T10:16:02.468Z,102383.47
2023-02-03T10:18:33.650Z,102397.38
2023-02-03T10:21:11.714Z,102399.53
2023-02-03T10:23:41.508Z,102403.78
2023-02-03T10:26:14.288Z,102408.19
2023-02-03T10:28:50.546Z,102407.19
2023-02-03T10:31:22.615Z,102421.44
2023-02-03T10:34:00.011Z,102409.81
2023-02-03T10:36:54.415Z,102430.47
2023-02-03T10:39:36.311Z,102424.06
2023-02-03T10:42:05.188Z,102431.44
2023-02-03T10:44:39.963Z,102409.00
2023-02-03T10:47:23.647Z,102419.34
2023-02-03T10:49:52.731Z,102432.44
2023-02-03T10:52:30.513Z,102429.78
2023-02-03T10:54:57.597Z,102445.66
2023-02-03T10:57:24.068Z,102444.66
2023-02-03T10:59:50.461Z,102457.28
2023-02-03T11:02:30.477Z,102473.44
2023-02-03T11:05:28.918Z,102467.03
2023-02-03T11:07:55.416Z,102465.72
2023-02-03T11:10:35.296Z,102473.28
2023-02-03T11:13:13.075Z,102481.63
2023-02-03T11:15:51.303Z,102476.50
2023-02-03T11:18:36.034Z,102470.59
2023-02-03T11:21:19.698Z,102457.81
2023-02-03T11:24:08.647Z,102452.09
2023-02-03T11:27:01.922Z,102463.38
2023-02-03T11:29:30.999Z,102477.59
2023-02-03T11:32:01.038Z,102483.81
2023-02-03T11:34:36.752Z,102479.03
2023-02-03T11:37:32.987Z,102479.84
2023-02-03T11:40:08.517Z,102484.75
2023-02-03T11:42:37.257Z,102466.25
2023-02-03T11:45:28.125Z,102497.00
2023-02-03T11:48:00.508Z,102487.16
2023-02-03T11:50:31.649Z,102489.81
2023-02-03T11:53:29.411Z,102498.03
2023-02-03T11:56:14.620Z,102503.09
2023-02-03T11:59:03.116Z,102501.81
2023-02-03T12:01:59.031Z,102491.03
2023-02-03T12:05:02.029Z,102499.91
2023-02-03T12:07:43.897Z,102514.97
2023-02-03T12:10:29.933Z,102529.03
2023-02-03T12:13:14.636Z,102517.75
2023-02-03T12:15:56.071Z,102515.59
2023-02-03T12:18:40.874Z,102525.06
2023-02-03T12:21:29.824Z,102534.75
2023-02-03T12:24:07.903Z,102526.38
2023-02-03T12:26:56.402Z,102540.28
2023-02-03T12:29:32.449Z,102547.16
2023-02-03T12:32:12.205Z,102535.41
2023-02-03T12:34:59.658Z,102550.44
2023-02-03T12:37:30.535Z,102554.19
2023-02-03T12:40:06.376Z,102561.38
2023-02-03T12:42:42.169Z,102565.78
2023-02-03T12:45:08.505Z,102574.00
2023-02-03T12:47:42.679Z,102573.66
2023-02-03T12:50:23.837Z,102559.72
2023-02-03T12:53:00.514Z,102563.38
2023-02-03T12:55:36.953Z,102545.84
2023-02-03T12:58:22.399Z,102549.63
2023-02-03T13:00:54.461Z,102542.25
2023-02-03T13:03:39.445Z,102570.38
2023-02-03T13:06:14.599Z,102571.91
2023-02-03T13:08:50.516Z,102578.25
2023-02-03T13:11:27.672Z,102580.03
2023-02-03T13:14:26.272Z,102573.66
2023-02-03T13:17:27.016Z,102567.44
2023-02-03T13:19:59.934Z,102577.69
2023-02-03T13:22:26.680Z,102575.44
2023-02-03T13:25:00.826Z,102578.88
2023-02-03T13:27:43.071Z,102575.13
2023-02-03T13:30:09.432Z,102568.41
2023-02-03T13:32:46.217Z,102570.72
2023-02-03T13:35:34.357Z,102563.50
2023-02-03T13:38:35.575Z,102571.22
2023-02-03T13:41:08.831Z,102573.84
2023-02-03T13:43:40.241Z,102579.22
2023-02-03T13:46:19.361Z,102577.09
2023-02-03T13:48:46.563Z,102568.34
2023-02-03T13:51:20.339Z,102561.97
2023-02-03T13:53:48.639Z,102570.81
2023-02-03T13:56:22.627Z,102583.75
2023-02-03T13:59:14.113Z,102574.91
2023-02-03T14:01:41.716Z,102572.91
2023-02-03T14:04:29.299Z,102554.28
2023-02-03T14:06:58.813Z,102581.09
2023-02-03T14:09:46.581Z,102586.00
2023-02-03T14:12:15.715Z,102594.66
2023-02-03T14:14:56.096Z,102599.75
2023-02-03T14:17:34.413Z,102604.66
2023-02-03T14:20:02.105Z,102613.59
2023-02-03T14:22:30.155Z,102613.78
2023-02-03T14:25:04.469Z,102609.16
2023-02-03T14:27:31.579Z,102626.47
2023-02-03T14:30:09.926Z,102637.94
2023-02-03T14:32:59.488Z,102642.19
2023-02-03T14:35:35.046Z,102645.31
2023-02-03T14:38:09.155Z,102637.94
2023-02-03T14:40:43.422Z,102639.56
2023-02-03T14:43:33.297Z,102641.59
2023-02-03T14:46:33.244Z,102646.34
2023-02-03T14:49:17.071Z,102634.75
2023-02-03T14:51:50.752Z,102638.50
2023-02-03T14:54:35.224Z,102635.91
2023-02-03T14:57:16.589Z,102640.78
2023-02-03T14:59:47.657Z,102647.97
2023-02-03T15:02:22.573Z,102634.50
2023-02-03T15:04:49.327Z,102639.06
2023-02-03T15:07:45.133Z,102642.53
2023-02-03T15:10:49.899Z,102648.41
2023-02-03T15:13:27.255Z,102653.94
2023-02-03T15:15:56.471Z,102654.41
2023-02-03T15:18:32.326Z,102652.53
2023-02-03T15:20:59.122Z,102650.88
2023-02-03T15:23:31.009Z,102656.41
2023-02-03T15:26:12.842Z,102658.50
2023-02-03T15:28:39.331Z,102661.09
2023-02-03T15:31:09.445Z,102670.91
2023-02-03T15:33:38.928Z,102667.22
2023-02-03T15:36:15.821Z,102665.50
2023-02-03T15:38:48.176Z,102679.63
2023-02-03T15:41:23.256Z,102676.63
2023-02-03T15:43:53.834Z,102673.34
2023-02-03T15:46:28.940Z,102694.41
2023-02-03T15:49:02.871Z,102694.53
2023-02-03T15:51:55.400Z,102699.25
2023-02-03T15:54:30.429Z,102686.38
2023-02-03T15:57:06.860Z,102686.63
2023-02-03T15:59:36.839Z,102700.25
2023-02-03T16:02:17.410Z,102699.59
2023-02-03T16:04:45.277Z,102701.81
2023-02-03T16:07:29.914Z,102697.13
2023-02-03T16:09:57.967Z,102707.06
2023-02-03T16:12:29.052Z,102720.25
2023-02-03T16:14:56.879Z,102726.44
2023-02-03T16:17:37.111Z,102736.22
2023-02-03T16:20:12.238Z,102734.84
2023-02-03T16:22:39.867Z,102728.94
2023-02-03T16:25:20.922Z,102728.56
2023-02-03T16:28:10.538Z,102736.53
2023-02-03T16:30:37.184Z,102730.22
2023-02-03T16:33:09.477Z,102732.59
2023-02-03T16:35:35.844Z,102738.13
2023-02-03T16:38:16.321Z,102746.88
2023-02-03T16:40:47.028Z,102733.84
2023-02-03T16:43:16.055Z,102756.25
2023-02-03T16:45:43.019Z,102750.34
2023-02-03T16:48:11.519Z,102755.56
2023-02-03T16:50:39.599Z,102757.47
2023-02-03T16:53:11.991Z,102760.09
2023-02-03T16:55:38.328Z,102750.09
2023-02-03T16:58:04.685Z,102758.22
2023-02-03T17:00:31.219Z,102762.31
2023-02-03T17:02:58.681Z,102769.59
2023-02-03T17:05:25.253Z,102767.69
2023-02-03T17:07:51.611Z,102768.09
2023-02-03T17:10:18.061Z,102767.81
2023-02-03T17:12:44.445Z,102785.69
2023-02-03T17:15:10.854Z,102786.22
2023-02-03T17:17:37.304Z,102790.75
2023-02-03T17:20:04.098Z,102809.97
2023-02-03T17:22:30.538Z,102804.75
2023-02-03T17:24:56.893Z,102814.25
2023-02-03T17:27:23.270Z,102798.03
2023-02-03T17:29:49.617Z,102812.47
2023-02-03T17:32:16.081Z,102820.28
2023-02-03T17:34:42.640Z,102826.59
2023-02-03T17:37:09.047Z,102819.59
2023-02-03T17:55:41.999Z,102858.69
2023-02-03T17:58:08.788Z,102862.13
2023-02-03T18:00:35.246Z,102874.75
2023-02-03T18:03:01.582Z,102873.25
2023-02-03T18:05:28.074Z,102883.41
2023-02-03T18:07:54.711Z,102878.06
2023-02-03T18:10:21.642Z,102877.09
2023-02-03T18:12:48.161Z,102876.81
2023-02-03T18:15:14.534Z,102888.50
2023-02-03T18:17:40.888Z,102879.41
2023-02-03T18:20:07.692Z,102873.63
2023-02-03T18:22:34.095Z,102868.84
2023-02-03T18:25:00.476Z,102879.69
2023-02-03T18:27:27.106Z,102883.13
2023-02-03T18:29:53.473Z,102887.38
2023-02-03T18:32:19.804Z,102896.16
2023-02-03T18:34:46.230Z,102901.63
2023-02-03T18:37:12.592Z,102886.09
2023-02-03T18:39:38.936Z,102914.25
2023-02-03T18:42:05.492Z,102910.97
2023-02-03T18:44:31.846Z,102914.09
2023-02-03T18:46:58.664Z,102906.56
2023-02-03T18:49:24.989Z,102902.56
2023-02-03T18:51:51.404Z,102898.16
2023-02-03T18:54:17.785Z,102905.06
2023-02-03T18:56:44.140Z,102909.41
2023-02-03T18:59:11.267Z,102914.50
2023-02-03T19:01:38.649Z,102915.19
2023-02-03T19:04:05.689Z,102924.69
2023-02-03T19:06:33.716Z,102929.91
2023-02-03T19:09:00.993Z,102929.91
2023-02-03T19:11:27.508Z,102930.59
2023-02-03T19:13:53.937Z,102924.69
2023-02-03T19:16:20.714Z,102928.25
2023-02-03T19:18:47.340Z,102930.03
2023-02-03T19:21:14.172Z,102933.75
2023-02-03T19:23:41.620Z,102943.63
2023-02-03T19:26:08.499Z,102950.06
2023-02-03T19:28:35.516Z,102962.84
2023-02-03T19:31:07.843Z,102970.53
2023-02-03T19:33:35.921Z,102968.06
2023-02-03T19:36:02.965Z,102964.06
2023-02-03T19:38:29.377Z,102971.47
2023-02-03T19:40:55.848Z,102965.28
2023-02-03T19:43:22.204Z,102972.44
2023-02-03T19:45:48.602Z,102973.38
2023-02-03T19:48:14.923Z,102992.50
2023-02-03T19:50:41.349Z,102993.31
2023-02-03T19:53:07.785Z,102999.34
2023-02-03T19:55:34.229Z,103002.06
2023-02-03T19:58:00.603Z,103001.78
2023-02-03T20:00:28.149Z,103012.31
2023-02-03T20:02:54.824Z,103012.72
2023-02-03T20:05:21.666Z,103014.94
2023-02-03T20:07:48.045Z,103014.88
2023-02-03T20:10:14.588Z,103011.78
2023-02-03T20:12:40.961Z,103008.16
2023-02-03T20:15:07.899Z,103006.00
2023-02-03T20:17:34.301Z,103010.50
2023-02-03T20:20:00.667Z,103005.66
2023-02-03T20:22:27.219Z,103021.19
2023-02-03T20:24:53.551Z,103030.78
2023-02-03T20:27:19.896Z,103022.31
2023-02-03T20:29:46.291Z,103036.50
2023-02-03T20:32:12.945Z,103030.59
2023-02-03T20:34:39.268Z,103032.94
2023-02-03T20:37:05.619Z,103036.06
2023-02-03T20:39:32.043Z,103027.53
2023-02-03T20:41:58.605Z,103028.44
2023-02-03T20:44:25.019Z,103036.00
2023-02-03T20:46:51.354Z,103052.09
2023-02-03T20:49:17.783Z,103057.16
2023-02-03T20:51:45.660Z,103048.53
2023-02-03T20:54:20.756Z,103047.81
2023-02-03T20:56:48.465Z,103055.97
2023-02-03T20:59:19.195Z,103051.44
2023-02-03T21:01:46.410Z,103051.19
2023-02-03T21:04:17.871Z,103046.81
2023-02-03T21:06:44.213Z,103053.75
2023-02-03T21:09:16.120Z,103059.03
2023-02-03T21:11:43.192Z,103054.75
2023-02-03T21:14:28.963Z,103049.53
2023-02-03T21:16:55.437Z,103052.00
2023-02-03T21:19:28.794Z,103048.97
2023-02-03T21:21:55.910Z,103051.59
2023-02-03T21:24:31.943Z,103048.91
2023-02-03T21:27:00.146Z,103057.75
2023-02-03T21:29:32.884Z,103053.75
2023-02-03T21:31:59.810Z,103069.84
2023-02-03T21:34:32.199Z,103059.00
2023-02-03T21:37:17.077Z,103065.38
2023-02-03T21:39:43.508Z,103074.09
2023-02-03T21:42:31.873Z,103084.63
2023-02-03T21:44:58.210Z,103072.81
2023-02-03T21:47:24.558Z,103082.72
2023-02-03T21:49:50.944Z,103087.41
2023-02-03T21:52:17.294Z,103081.47
2023-02-03T21:54:43.649Z,103093.31
2023-02-03T21:57:13.925Z,103084.03
2023-02-03T21:59:41.211Z,103082.34
2023-02-03T22:02:55.132Z,103089.22
2023-02-03T22:05:21.473Z,103087.38
2023-02-03T22:07:47.804Z,103086.75
2023-02-03T22:10:14.238Z,103093.88
2023-02-03T22:12:40.658Z,103099.66
2023-02-03T22:15:07.404Z,103089.72
2023-02-03T22:17:33.847Z,103099.50
2023-02-03T22:20:00.194Z,103108.81
2023-02-03T22:22:26.565Z,103120.16
2023-02-03T22:24:52.898Z,103118.41
2023-02-03T22:27:19.226Z,103123.34
2023-02-03T22:29:45.558Z,103122.16
2023-02-03T22:32:11.872Z,103110.91
2023-02-03T22:34:38.188Z,103117.75
2023-02-03T22:37:04.572Z,103122.03
2023-02-03T22:39:30.921Z,103115.31
2023-02-03T22:41:57.307Z,103127.25
2023-02-03T22:44:23.724Z,103135.06
2023-02-03T22:46:50.030Z,103137.78
2023-02-03T22:49:16.368Z,103130.59
2023-02-03T22:51:42.702Z,103138.19
2023-02-03T22:54:09.020Z,103147.78
2023-02-03T22:56:35.355Z,103132.66
2023-02-03T22:59:01.695Z,103148.84
2023-02-03T23:01:28.083Z,103152.53
2023-02-03T23:03:54.437Z,103160.81
2023-02-03T23:06:20.758Z,103157.75
2023-02-03T23:08:47.106Z,103174.91
2023-02-03T23:11:13.477Z,103163.22
2023-02-03T23:13:39.816Z,103174.34
2023-02-03T23:16:06.315Z,103184.88
2023-02-03T23:18:32.715Z,103176.09
2023-02-03T23:20:59.086Z,103179.91
2023-02-03T23:23:25.424Z,103189.28
2023-02-03T23:25:51.789Z,103183.72
2023-02-03T23:28:18.214Z,103198.16
2023-02-03T23:30:44.639Z,103188.69
2023-02-03T23:33:11.039Z,103190.59
2023-02-03T23:35:37.367Z,103195.81
2023-02-03T23:38:03.823Z,103209.97
2023-02-03T23:40:30.415Z,103205.75
2023-02-03T23:42:57.008Z,103203.94
2023-02-03T23:45:23.342Z,103201.00
2023-02-03T23:47:49.765Z,103200.75
2023-02-03T23:50:17.286Z,103205.16
2023-02-03T23:52:43.582Z,103197.44
2023-02-03T23:55:18.069Z,103195.22
2023-02-03T23:57:45.036Z,103196.28
